sensor_id;sensor_type;location;lat;lon;timestamp;P1;durP1;ratioP1;P2;durP2;ratioP2
77379;SDS011;66439;50.106;10.996;2023-04-26T00:01:24;10.30;;;3.90;;
77379;SDS011;66439;50.106;10.996;2023-04-26T00:03:34;9.20;;;4.00;;
77379;SDS011;66439;50.106;10.996;2023-04-26T00:05:37;11.10;;;4.50;;
77379;SDS011;66439;50.106;10.996;2023-04-26T00:07:42;10.70;;;5.10;;
77379;SDS011;66439;50.106;10.996;2023-04-26T00:09:48;12.90;;;5.40;;
77379;SDS011;66439;50.106;10.996;2023-04-26T00:11:51;14.20;;;6.20;;
77379;SDS011;66439;50.106;10.996;2023-04-26T00:13:53;8.50;;;4.70;;
77379;SDS011;66439;50.106;10.996;2023-04-26T00:15:58;10.90;;;4.50;;
77379;SDS011;66439;50.106;10.996;2023-04-26T00:18:01;11.80;;;5.10;;
77379;SDS011;66439;50.106;10.996;2023-04-26T00:20:05;10.60;;;4.70;;
77379;SDS011;66439;50.106;10.996;2023-04-26T00:22:14;9.90;;;4.40;;
77379;SDS011;66439;50.106;10.996;2023-04-26T00:24:19;12.30;;;4.10;;
77379;SDS011;66439;50.106;10.996;2023-04-26T00:26:22;9.40;;;3.80;;
77379;SDS011;66439;50.106;10.996;2023-04-26T00:28:25;12.10;;;4.80;;
77379;SDS011;66439;50.106;10.996;2023-04-26T00:30:28;12.60;;;5.10;;
77379;SDS011;66439;50.106;10.996;2023-04-26T00:32:34;9.20;;;4.10;;
77379;SDS011;66439;50.106;10.996;2023-04-26T00:34:37;8.00;;;4.30;;
77379;SDS011;66439;50.106;10.996;2023-04-26T00:36:40;8.80;;;4.30;;
77379;SDS011;66439;50.106;10.996;2023-04-26T00:38:45;9.60;;;4.00;;
77379;SDS011;66439;50.106;10.996;2023-04-26T00:40:49;17.90;;;8.30;;
77379;SDS011;66439;50.106;10.996;2023-04-26T00:42:57;15.10;;;5.80;;
77379;SDS011;66439;50.106;10.996;2023-04-26T00:45:02;10.50;;;5.80;;
77379;SDS011;66439;50.106;10.996;2023-04-26T00:47:05;14.90;;;8.00;;
77379;SDS011;66439;50.106;10.996;2023-04-26T00:49:16;11.80;;;5.60;;
77379;SDS011;66439;50.106;10.996;2023-04-26T00:51:24;10.90;;;6.10;;
77379;SDS011;66439;50.106;10.996;2023-04-26T00:53:30;9.30;;;4.00;;
77379;SDS011;66439;50.106;10.996;2023-04-26T00:55:34;10.50;;;4.10;;
77379;SDS011;66439;50.106;10.996;2023-04-26T00:57:38;8.50;;;3.80;;
77379;SDS011;66439;50.106;10.996;2023-04-26T00:59:44;11.40;;;4.20;;
77379;SDS011;66439;50.106;10.996;2023-04-26T01:01:49;6.40;;;4.00;;
77379;SDS011;66439;50.106;10.996;2023-04-26T01:03:54;12.30;;;5.90;;
77379;SDS011;66439;50.106;10.996;2023-04-26T01:05:58;9.00;;;7.80;;
77379;SDS011;66439;50.106;10.996;2023-04-26T01:08:01;13.00;;;7.30;;
77379;SDS011;66439;50.106;10.996;2023-04-26T01:10:06;8.70;;;6.80;;
77379;SDS011;66439;50.106;10.996;2023-04-26T01:12:11;8.30;;;5.80;;
77379;SDS011;66439;50.106;10.996;2023-04-26T01:14:17;10.90;;;6.50;;
77379;SDS011;66439;50.106;10.996;2023-04-26T01:16:21;9.10;;;7.20;;
77379;SDS011;66439;50.106;10.996;2023-04-26T01:18:26;9.90;;;5.80;;
77379;SDS011;66439;50.106;10.996;2023-04-26T01:20:30;8.60;;;5.10;;
77379;SDS011;66439;50.106;10.996;2023-04-26T01:22:35;7.70;;;5.30;;
77379;SDS011;66439;50.106;10.996;2023-04-26T01:24:41;8.90;;;5.90;;
77379;SDS011;66439;50.106;10.996;2023-04-26T01:26:46;12.20;;;6.30;;
77379;SDS011;66439;50.106;10.996;2023-04-26T01:28:49;9.00;;;7.70;;
77379;SDS011;66439;50.106;10.996;2023-04-26T01:30:53;10.50;;;6.10;;
77379;SDS011;66439;50.106;10.996;2023-04-26T01:32:57;8.80;;;6.80;;
77379;SDS011;66439;50.106;10.996;2023-04-26T01:35:00;10.90;;;6.70;;
77379;SDS011;66439;50.106;10.996;2023-04-26T01:37:03;8.30;;;6.40;;
77379;SDS011;66439;50.106;10.996;2023-04-26T01:39:06;7.00;;;5.80;;
77379;SDS011;66439;50.106;10.996;2023-04-26T01:41:12;9.70;;;6.00;;
77379;SDS011;66439;50.106;10.996;2023-04-26T01:43:17;9.90;;;5.70;;
77379;SDS011;66439;50.106;10.996;2023-04-26T01:45:22;8.90;;;5.40;;
77379;SDS011;66439;50.106;10.996;2023-04-26T01:47:43;11.40;;;6.10;;
77379;SDS011;66439;50.106;10.996;2023-04-26T01:49:48;10.80;;;6.90;;
77379;SDS011;66439;50.106;10.996;2023-04-26T01:51:51;11.60;;;7.40;;
77379;SDS011;66439;50.106;10.996;2023-04-26T01:53:54;9.20;;;7.30;;
77379;SDS011;66439;50.106;10.996;2023-04-26T01:56:00;9.10;;;6.40;;
77379;SDS011;66439;50.106;10.996;2023-04-26T01:58:05;9.60;;;5.40;;
77379;SDS011;66439;50.106;10.996;2023-04-26T02:00:08;8.90;;;5.80;;
77379;SDS011;66439;50.106;10.996;2023-04-26T02:02:17;11.80;;;5.80;;
77379;SDS011;66439;50.106;10.996;2023-04-26T02:04:21;8.20;;;5.30;;
77379;SDS011;66439;50.106;10.996;2023-04-26T02:06:28;9.40;;;4.90;;
77379;SDS011;66439;50.106;10.996;2023-04-26T02:08:30;9.50;;;5.60;;
77379;SDS011;66439;50.106;10.996;2023-04-26T02:10:34;12.50;;;5.60;;
77379;SDS011;66439;50.106;10.996;2023-04-26T02:12:38;7.30;;;5.80;;
77379;SDS011;66439;50.106;10.996;2023-04-26T02:14:41;8.50;;;6.20;;
77379;SDS011;66439;50.106;10.996;2023-04-26T02:16:45;11.30;;;6.00;;
77379;SDS011;66439;50.106;10.996;2023-04-26T02:18:48;8.90;;;7.20;;
77379;SDS011;66439;50.106;10.996;2023-04-26T02:20:51;9.30;;;7.10;;
77379;SDS011;66439;50.106;10.996;2023-04-26T02:22:55;9.10;;;7.10;;
77379;SDS011;66439;50.106;10.996;2023-04-26T02:24:58;10.00;;;7.30;;
77379;SDS011;66439;50.106;10.996;2023-04-26T02:27:02;8.50;;;5.90;;
77379;SDS011;66439;50.106;10.996;2023-04-26T02:31:12;11.30;;;5.30;;
77379;SDS011;66439;50.106;10.996;2023-04-26T02:33:17;7.90;;;5.20;;
77379;SDS011;66439;50.106;10.996;2023-04-26T02:35:21;11.30;;;5.20;;
77379;SDS011;66439;50.106;10.996;2023-04-26T02:37:24;8.60;;;5.30;;
77379;SDS011;66439;50.106;10.996;2023-04-26T02:39:29;9.40;;;5.20;;
77379;SDS011;66439;50.106;10.996;2023-04-26T02:41:36;7.20;;;4.60;;
77379;SDS011;66439;50.106;10.996;2023-04-26T02:43:39;11.10;;;6.10;;
77379;SDS011;66439;50.106;10.996;2023-04-26T02:45:43;8.80;;;6.40;;
77379;SDS011;66439;50.106;10.996;2023-04-26T02:47:48;13.00;;;7.50;;
77379;SDS011;66439;50.106;10.996;2023-04-26T02:49:51;11.50;;;6.00;;
77379;SDS011;66439;50.106;10.996;2023-04-26T02:51:56;10.50;;;6.80;;
77379;SDS011;66439;50.106;10.996;2023-04-26T02:54:00;16.60;;;7.40;;
77379;SDS011;66439;50.106;10.996;2023-04-26T02:56:08;27.40;;;10.30;;
77379;SDS011;66439;50.106;10.996;2023-04-26T02:58:11;21.60;;;8.60;;
77379;SDS011;66439;50.106;10.996;2023-04-26T03:00:15;12.10;;;6.50;;
77379;SDS011;66439;50.106;10.996;2023-04-26T03:02:20;15.10;;;7.60;;
77379;SDS011;66439;50.106;10.996;2023-04-26T03:04:24;13.20;;;5.40;;
77379;SDS011;66439;50.106;10.996;2023-04-26T03:06:28;9.00;;;6.10;;
77379;SDS011;66439;50.106;10.996;2023-04-26T03:08:32;12.30;;;5.60;;
77379;SDS011;66439;50.106;10.996;2023-04-26T03:10:36;7.90;;;4.80;;
77379;SDS011;66439;50.106;10.996;2023-04-26T03:12:40;11.00;;;4.50;;
77379;SDS011;66439;50.106;10.996;2023-04-26T03:14:44;6.40;;;4.30;;
77379;SDS011;66439;50.106;10.996;2023-04-26T03:16:50;9.00;;;4.90;;
77379;SDS011;66439;50.106;10.996;2023-04-26T03:18:54;10.30;;;5.70;;
77379;SDS011;66439;50.106;10.996;2023-04-26T03:21:06;10.50;;;5.30;;
77379;SDS011;66439;50.106;10.996;2023-04-26T03:23:10;7.70;;;5.00;;
77379;SDS011;66439;50.106;10.996;2023-04-26T03:25:14;10.90;;;6.00;;
77379;SDS011;66439;50.106;10.996;2023-04-26T03:27:18;6.00;;;4.50;;
77379;SDS011;66439;50.106;10.996;2023-04-26T03:29:21;6.20;;;5.00;;
77379;SDS011;66439;50.106;10.996;2023-04-26T03:31:24;8.20;;;6.80;;
77379;SDS011;66439;50.106;10.996;2023-04-26T03:33:31;7.30;;;6.50;;
77379;SDS011;66439;50.106;10.996;2023-04-26T03:35:34;10.70;;;5.60;;
77379;SDS011;66439;50.106;10.996;2023-04-26T03:37:41;9.50;;;5.70;;
77379;SDS011;66439;50.106;10.996;2023-04-26T03:39:46;6.10;;;4.90;;
77379;SDS011;66439;50.106;10.996;2023-04-26T03:41:55;8.70;;;4.90;;
77379;SDS011;66439;50.106;10.996;2023-04-26T03:44:00;7.40;;;5.70;;
77379;SDS011;66439;50.106;10.996;2023-04-26T03:46:05;8.30;;;5.80;;
77379;SDS011;66439;50.106;10.996;2023-04-26T03:48:09;7.50;;;6.00;;
77379;SDS011;66439;50.106;10.996;2023-04-26T03:50:12;6.60;;;5.00;;
77379;SDS011;66439;50.106;10.996;2023-04-26T03:52:15;6.10;;;5.30;;
77379;SDS011;66439;50.106;10.996;2023-04-26T03:54:20;7.50;;;5.60;;
77379;SDS011;66439;50.106;10.996;2023-04-26T03:56:24;8.20;;;6.20;;
77379;SDS011;66439;50.106;10.996;2023-04-26T03:58:30;14.20;;;6.10;;
77379;SDS011;66439;50.106;10.996;2023-04-26T04:00:36;10.20;;;6.40;;
77379;SDS011;66439;50.106;10.996;2023-04-26T04:02:43;11.40;;;6.30;;
77379;SDS011;66439;50.106;10.996;2023-04-26T04:04:49;13.70;;;6.50;;
77379;SDS011;66439;50.106;10.996;2023-04-26T04:06:54;13.50;;;7.20;;
77379;SDS011;66439;50.106;10.996;2023-04-26T04:08:57;12.40;;;7.00;;
77379;SDS011;66439;50.106;10.996;2023-04-26T04:11:02;14.50;;;7.70;;
77379;SDS011;66439;50.106;10.996;2023-04-26T04:13:11;10.50;;;6.70;;
77379;SDS011;66439;50.106;10.996;2023-04-26T04:15:14;10.00;;;6.30;;
77379;SDS011;66439;50.106;10.996;2023-04-26T04:17:22;9.60;;;6.00;;
77379;SDS011;66439;50.106;10.996;2023-04-26T04:19:25;9.50;;;7.20;;
77379;SDS011;66439;50.106;10.996;2023-04-26T04:21:30;14.50;;;7.80;;
77379;SDS011;66439;50.106;10.996;2023-04-26T04:23:35;9.60;;;6.70;;
77379;SDS011;66439;50.106;10.996;2023-04-26T04:25:43;10.60;;;5.20;;
77379;SDS011;66439;50.106;10.996;2023-04-26T04:27:47;8.50;;;6.20;;
77379;SDS011;66439;50.106;10.996;2023-04-26T04:29:50;13.30;;;7.20;;
77379;SDS011;66439;50.106;10.996;2023-04-26T04:31:55;7.40;;;6.00;;
77379;SDS011;66439;50.106;10.996;2023-04-26T04:33:59;9.70;;;5.60;;
77379;SDS011;66439;50.106;10.996;2023-04-26T04:36:03;13.50;;;7.40;;
77379;SDS011;66439;50.106;10.996;2023-04-26T04:38:08;19.70;;;9.30;;
77379;SDS011;66439;50.106;10.996;2023-04-26T04:40:11;18.90;;;9.50;;
77379;SDS011;66439;50.106;10.996;2023-04-26T04:42:20;17.40;;;9.50;;
77379;SDS011;66439;50.106;10.996;2023-04-26T04:44:23;19.50;;;8.90;;
77379;SDS011;66439;50.106;10.996;2023-04-26T04:46:30;18.70;;;8.80;;
77379;SDS011;66439;50.106;10.996;2023-04-26T04:48:34;19.30;;;10.00;;
77379;SDS011;66439;50.106;10.996;2023-04-26T04:50:40;17.40;;;10.40;;
77379;SDS011;66439;50.106;10.996;2023-04-26T04:52:44;17.00;;;9.50;;
77379;SDS011;66439;50.106;10.996;2023-04-26T04:54:49;19.50;;;10.60;;
77379;SDS011;66439;50.106;10.996;2023-04-26T04:56:54;22.00;;;10.40;;
77379;SDS011;66439;50.106;10.996;2023-04-26T04:58:59;22.10;;;10.50;;
77379;SDS011;66439;50.106;10.996;2023-04-26T05:01:02;18.50;;;9.40;;
77379;SDS011;66439;50.106;10.996;2023-04-26T05:03:17;15.50;;;10.00;;
77379;SDS011;66439;50.106;10.996;2023-04-26T05:05:21;16.70;;;9.80;;
77379;SDS011;66439;50.106;10.996;2023-04-26T05:07:25;14.80;;;9.60;;
77379;SDS011;66439;50.106;10.996;2023-04-26T05:09:34;15.10;;;9.40;;
77379;SDS011;66439;50.106;10.996;2023-04-26T05:11:38;13.40;;;9.60;;
77379;SDS011;66439;50.106;10.996;2023-04-26T05:13:42;15.90;;;9.60;;
77379;SDS011;66439;50.106;10.996;2023-04-26T05:15:45;15.00;;;7.90;;
77379;SDS011;66439;50.106;10.996;2023-04-26T05:17:48;10.60;;;6.90;;
77379;SDS011;66439;50.106;10.996;2023-04-26T05:19:55;15.00;;;7.50;;
77379;SDS011;66439;50.106;10.996;2023-04-26T05:21:59;19.00;;;6.90;;
77379;SDS011;66439;50.106;10.996;2023-04-26T05:24:04;14.60;;;7.00;;
77379;SDS011;66439;50.106;10.996;2023-04-26T05:26:09;13.10;;;6.70;;
77379;SDS011;66439;50.106;10.996;2023-04-26T05:28:35;12.40;;;6.70;;
77379;SDS011;66439;50.106;10.996;2023-04-26T05:30:55;13.40;;;6.90;;
77379;SDS011;66439;50.106;10.996;2023-04-26T05:33:24;21.20;;;9.40;;
77379;SDS011;66439;50.106;10.996;2023-04-26T05:35:40;22.20;;;8.10;;
77379;SDS011;66439;50.106;10.996;2023-04-26T05:37:44;31.50;;;10.70;;
77379;SDS011;66439;50.106;10.996;2023-04-26T05:39:49;25.10;;;10.30;;
77379;SDS011;66439;50.106;10.996;2023-04-26T05:41:53;24.80;;;10.10;;
77379;SDS011;66439;50.106;10.996;2023-04-26T05:43:57;26.40;;;10.10;;
77379;SDS011;66439;50.106;10.996;2023-04-26T05:46:02;13.30;;;7.70;;
77379;SDS011;66439;50.106;10.996;2023-04-26T05:48:09;11.50;;;7.00;;
77379;SDS011;66439;50.106;10.996;2023-04-26T05:50:12;12.40;;;7.70;;
77379;SDS011;66439;50.106;10.996;2023-04-26T05:52:15;10.40;;;8.40;;
77379;SDS011;66439;50.106;10.996;2023-04-26T05:54:18;10.70;;;6.40;;
77379;SDS011;66439;50.106;10.996;2023-04-26T05:56:20;9.10;;;6.30;;
77379;SDS011;66439;50.106;10.996;2023-04-26T05:58:27;11.40;;;6.10;;
77379;SDS011;66439;50.106;10.996;2023-04-26T06:00:30;8.90;;;6.80;;
77379;SDS011;66439;50.106;10.996;2023-04-26T06:02:40;10.40;;;6.90;;
77379;SDS011;66439;50.106;10.996;2023-04-26T06:04:48;10.60;;;6.00;;
77379;SDS011;66439;50.106;10.996;2023-04-26T06:06:52;12.90;;;7.30;;
77379;SDS011;66439;50.106;10.996;2023-04-26T06:08:56;14.40;;;7.50;;
77379;SDS011;66439;50.106;10.996;2023-04-26T06:11:01;11.00;;;5.90;;
77379;SDS011;66439;50.106;10.996;2023-04-26T06:13:31;9.00;;;7.30;;
77379;SDS011;66439;50.106;10.996;2023-04-26T06:15:34;12.40;;;6.60;;
77379;SDS011;66439;50.106;10.996;2023-04-26T06:17:37;10.90;;;6.50;;
77379;SDS011;66439;50.106;10.996;2023-04-26T06:19:41;7.70;;;5.50;;
77379;SDS011;66439;50.106;10.996;2023-04-26T06:21:46;16.20;;;6.90;;
77379;SDS011;66439;50.106;10.996;2023-04-26T06:23:50;13.40;;;7.30;;
77379;SDS011;66439;50.106;10.996;2023-04-26T06:25:54;13.00;;;6.70;;
77379;SDS011;66439;50.106;10.996;2023-04-26T06:27:59;10.70;;;6.00;;
77379;SDS011;66439;50.106;10.996;2023-04-26T06:30:02;9.60;;;5.70;;
77379;SDS011;66439;50.106;10.996;2023-04-26T06:32:08;15.20;;;7.00;;
77379;SDS011;66439;50.106;10.996;2023-04-26T06:34:11;11.00;;;6.20;;
77379;SDS011;66439;50.106;10.996;2023-04-26T06:36:13;9.70;;;6.80;;
77379;SDS011;66439;50.106;10.996;2023-04-26T06:38:18;19.50;;;8.60;;
77379;SDS011;66439;50.106;10.996;2023-04-26T06:40:22;11.40;;;6.70;;
77379;SDS011;66439;50.106;10.996;2023-04-26T06:42:25;9.60;;;5.80;;
77379;SDS011;66439;50.106;10.996;2023-04-26T06:44:40;15.40;;;6.60;;
77379;SDS011;66439;50.106;10.996;2023-04-26T06:46:53;13.90;;;5.20;;
77379;SDS011;66439;50.106;10.996;2023-04-26T06:48:57;18.90;;;7.80;;
77379;SDS011;66439;50.106;10.996;2023-04-26T06:51:07;10.30;;;7.00;;
77379;SDS011;66439;50.106;10.996;2023-04-26T06:53:11;12.90;;;7.20;;
77379;SDS011;66439;50.106;10.996;2023-04-26T06:55:15;14.80;;;9.40;;
77379;SDS011;66439;50.106;10.996;2023-04-26T06:57:19;9.20;;;6.80;;
77379;SDS011;66439;50.106;10.996;2023-04-26T06:59:24;14.10;;;7.90;;
77379;SDS011;66439;50.106;10.996;2023-04-26T07:01:35;14.80;;;6.50;;
77379;SDS011;66439;50.106;10.996;2023-04-26T07:03:40;11.30;;;7.70;;
77379;SDS011;66439;50.106;10.996;2023-04-26T07:05:46;11.80;;;6.40;;
77379;SDS011;66439;50.106;10.996;2023-04-26T07:07:50;16.10;;;6.50;;
77379;SDS011;66439;50.106;10.996;2023-04-26T07:09:52;15.70;;;8.00;;
77379;SDS011;66439;50.106;10.996;2023-04-26T07:11:57;12.30;;;6.30;;
77379;SDS011;66439;50.106;10.996;2023-04-26T07:14:04;20.40;;;7.80;;
77379;SDS011;66439;50.106;10.996;2023-04-26T07:16:10;13.20;;;8.90;;
77379;SDS011;66439;50.106;10.996;2023-04-26T07:18:12;21.10;;;9.60;;
77379;SDS011;66439;50.106;10.996;2023-04-26T07:20:17;13.30;;;8.10;;
77379;SDS011;66439;50.106;10.996;2023-04-26T07:22:26;10.80;;;5.80;;
77379;SDS011;66439;50.106;10.996;2023-04-26T07:24:29;19.50;;;8.70;;
77379;SDS011;66439;50.106;10.996;2023-04-26T07:26:33;22.00;;;8.20;;
77379;SDS011;66439;50.106;10.996;2023-04-26T07:28:42;15.20;;;7.60;;
77379;SDS011;66439;50.106;10.996;2023-04-26T07:30:46;18.90;;;6.60;;
77379;SDS011;66439;50.106;10.996;2023-04-26T07:32:49;8.40;;;5.50;;
77379;SDS011;66439;50.106;10.996;2023-04-26T07:34:54;12.80;;;6.80;;
77379;SDS011;66439;50.106;10.996;2023-04-26T07:36:58;15.50;;;6.80;;
77379;SDS011;66439;50.106;10.996;2023-04-26T07:39:02;12.60;;;7.60;;
77379;SDS011;66439;50.106;10.996;2023-04-26T07:41:07;13.00;;;7.00;;
77379;SDS011;66439;50.106;10.996;2023-04-26T07:43:11;11.60;;;6.50;;
77379;SDS011;66439;50.106;10.996;2023-04-26T07:45:15;15.80;;;8.10;;
77379;SDS011;66439;50.106;10.996;2023-04-26T07:47:19;13.70;;;8.70;;
77379;SDS011;66439;50.106;10.996;2023-04-26T07:49:22;9.30;;;7.70;;
77379;SDS011;66439;50.106;10.996;2023-04-26T07:51:25;10.40;;;7.10;;
77379;SDS011;66439;50.106;10.996;2023-04-26T07:53:28;13.00;;;6.10;;
77379;SDS011;66439;50.106;10.996;2023-04-26T07:55:32;11.70;;;5.50;;
77379;SDS011;66439;50.106;10.996;2023-04-26T07:57:35;8.90;;;5.10;;
77379;SDS011;66439;50.106;10.996;2023-04-26T07:59:40;9.00;;;6.20;;
77379;SDS011;66439;50.106;10.996;2023-04-26T08:01:43;15.90;;;6.80;;
77379;SDS011;66439;50.106;10.996;2023-04-26T08:03:48;14.20;;;6.00;;
77379;SDS011;66439;50.106;10.996;2023-04-26T08:05:51;13.50;;;7.60;;
77379;SDS011;66439;50.106;10.996;2023-04-26T08:07:55;18.70;;;6.60;;
77379;SDS011;66439;50.106;10.996;2023-04-26T08:09:59;10.30;;;6.50;;
77379;SDS011;66439;50.106;10.996;2023-04-26T08:12:04;13.00;;;6.80;;
77379;SDS011;66439;50.106;10.996;2023-04-26T08:14:09;15.70;;;7.20;;
77379;SDS011;66439;50.106;10.996;2023-04-26T08:16:14;11.90;;;7.20;;
77379;SDS011;66439;50.106;10.996;2023-04-26T08:18:17;17.70;;;7.20;;
77379;SDS011;66439;50.106;10.996;2023-04-26T08:20:22;17.50;;;6.50;;
77379;SDS011;66439;50.106;10.996;2023-04-26T08:22:26;10.80;;;5.60;;
77379;SDS011;66439;50.106;10.996;2023-04-26T08:24:30;9.80;;;5.30;;
77379;SDS011;66439;50.106;10.996;2023-04-26T08:26:34;8.80;;;6.60;;
77379;SDS011;66439;50.106;10.996;2023-04-26T08:28:36;8.80;;;5.80;;
77379;SDS011;66439;50.106;10.996;2023-04-26T08:30:40;8.80;;;5.90;;
77379;SDS011;66439;50.106;10.996;2023-04-26T08:32:44;13.00;;;7.50;;
77379;SDS011;66439;50.106;10.996;2023-04-26T08:34:47;13.50;;;6.80;;
77379;SDS011;66439;50.106;10.996;2023-04-26T08:36:52;13.40;;;6.90;;
77379;SDS011;66439;50.106;10.996;2023-04-26T08:38:54;11.00;;;6.50;;
77379;SDS011;66439;50.106;10.996;2023-04-26T08:40:59;19.30;;;8.90;;
77379;SDS011;66439;50.106;10.996;2023-04-26T08:43:04;17.70;;;8.70;;
77379;SDS011;66439;50.106;10.996;2023-04-26T08:45:10;11.00;;;5.70;;
77379;SDS011;66439;50.106;10.996;2023-04-26T08:49:38;10.50;;;5.70;;
77379;SDS011;66439;50.106;10.996;2023-04-26T08:51:44;11.50;;;6.40;;
77379;SDS011;66439;50.106;10.996;2023-04-26T08:53:49;12.50;;;6.30;;
77379;SDS011;66439;50.106;10.996;2023-04-26T08:55:54;10.60;;;6.20;;
77379;SDS011;66439;50.106;10.996;2023-04-26T08:58:02;9.50;;;5.70;;
77379;SDS011;66439;50.106;10.996;2023-04-26T09:00:05;13.50;;;7.00;;
77379;SDS011;66439;50.106;10.996;2023-04-26T09:02:18;12.40;;;6.10;;
77379;SDS011;66439;50.106;10.996;2023-04-26T09:04:22;9.40;;;5.30;;
77379;SDS011;66439;50.106;10.996;2023-04-26T09:06:27;12.70;;;5.70;;
77379;SDS011;66439;50.106;10.996;2023-04-26T09:08:31;11.20;;;5.30;;
77379;SDS011;66439;50.106;10.996;2023-04-26T09:10:38;7.90;;;5.30;;
77379;SDS011;66439;50.106;10.996;2023-04-26T09:12:41;16.20;;;6.70;;
77379;SDS011;66439;50.106;10.996;2023-04-26T09:14:44;12.20;;;5.70;;
77379;SDS011;66439;50.106;10.996;2023-04-26T09:16:48;10.10;;;4.90;;
77379;SDS011;66439;50.106;10.996;2023-04-26T09:18:51;7.10;;;4.10;;
77379;SDS011;66439;50.106;10.996;2023-04-26T09:21:05;7.60;;;4.60;;
77379;SDS011;66439;50.106;10.996;2023-04-26T09:23:09;13.20;;;8.00;;
77379;SDS011;66439;50.106;10.996;2023-04-26T09:25:13;8.40;;;6.40;;
77379;SDS011;66439;50.106;10.996;2023-04-26T09:27:19;9.20;;;6.90;;
77379;SDS011;66439;50.106;10.996;2023-04-26T09:29:24;7.90;;;7.20;;
77379;SDS011;66439;50.106;10.996;2023-04-26T09:31:37;11.90;;;7.50;;
77379;SDS011;66439;50.106;10.996;2023-04-26T09:33:57;11.00;;;4.70;;
77379;SDS011;66439;50.106;10.996;2023-04-26T09:36:12;10.00;;;5.10;;
77379;SDS011;66439;50.106;10.996;2023-04-26T09:38:17;7.60;;;6.90;;
77379;SDS011;66439;50.106;10.996;2023-04-26T09:40:20;8.20;;;5.40;;
77379;SDS011;66439;50.106;10.996;2023-04-26T09:42:27;12.20;;;5.50;;
77379;SDS011;66439;50.106;10.996;2023-04-26T09:44:30;12.70;;;6.60;;
77379;SDS011;66439;50.106;10.996;2023-04-26T09:46:35;8.80;;;4.90;;
77379;SDS011;66439;50.106;10.996;2023-04-26T09:48:40;8.10;;;5.00;;
77379;SDS011;66439;50.106;10.996;2023-04-26T09:50:43;9.60;;;4.70;;
77379;SDS011;66439;50.106;10.996;2023-04-26T09:52:50;8.30;;;5.30;;
77379;SDS011;66439;50.106;10.996;2023-04-26T09:54:52;10.40;;;5.10;;
77379;SDS011;66439;50.106;10.996;2023-04-26T09:56:59;11.70;;;5.40;;
77379;SDS011;66439;50.106;10.996;2023-04-26T09:59:07;15.90;;;6.60;;
77379;SDS011;66439;50.106;10.996;2023-04-26T10:01:15;12.00;;;6.10;;
77379;SDS011;66439;50.106;10.996;2023-04-26T10:03:21;10.70;;;6.60;;
77379;SDS011;66439;50.106;10.996;2023-04-26T10:05:25;15.40;;;8.20;;
77379;SDS011;66439;50.106;10.996;2023-04-26T10:07:33;11.90;;;6.30;;
77379;SDS011;66439;50.106;10.996;2023-04-26T10:09:38;14.60;;;8.10;;
77379;SDS011;66439;50.106;10.996;2023-04-26T10:11:43;7.60;;;6.30;;
77379;SDS011;66439;50.106;10.996;2023-04-26T10:13:50;10.70;;;6.40;;
77379;SDS011;66439;50.106;10.996;2023-04-26T10:15:57;12.10;;;5.70;;
77379;SDS011;66439;50.106;10.996;2023-04-26T10:18:02;9.60;;;6.00;;
77379;SDS011;66439;50.106;10.996;2023-04-26T10:20:08;13.90;;;4.70;;
77379;SDS011;66439;50.106;10.996;2023-04-26T10:22:16;10.20;;;5.60;;
77379;SDS011;66439;50.106;10.996;2023-04-26T10:24:27;10.90;;;5.50;;
77379;SDS011;66439;50.106;10.996;2023-04-26T10:26:46;12.50;;;8.00;;
77379;SDS011;66439;50.106;10.996;2023-04-26T10:28:53;8.40;;;4.30;;
77379;SDS011;66439;50.106;10.996;2023-04-26T10:31:03;10.40;;;4.60;;
77379;SDS011;66439;50.106;10.996;2023-04-26T10:33:11;9.10;;;5.00;;
77379;SDS011;66439;50.106;10.996;2023-04-26T10:35:18;9.00;;;4.80;;
77379;SDS011;66439;50.106;10.996;2023-04-26T10:37:23;7.90;;;5.30;;
77379;SDS011;66439;50.106;10.996;2023-04-26T10:39:26;8.60;;;5.50;;
77379;SDS011;66439;50.106;10.996;2023-04-26T10:41:34;11.60;;;7.20;;
77379;SDS011;66439;50.106;10.996;2023-04-26T10:43:39;9.30;;;5.60;;
77379;SDS011;66439;50.106;10.996;2023-04-26T10:45:44;9.30;;;5.50;;
77379;SDS011;66439;50.106;10.996;2023-04-26T10:47:48;8.80;;;4.90;;
77379;SDS011;66439;50.106;10.996;2023-04-26T10:49:51;9.70;;;5.30;;
77379;SDS011;66439;50.106;10.996;2023-04-26T10:54:23;13.50;;;5.10;;
77379;SDS011;66439;50.106;10.996;2023-04-26T10:58:31;9.50;;;6.00;;
77379;SDS011;66439;50.106;10.996;2023-04-26T11:00:36;12.50;;;5.70;;
77379;SDS011;66439;50.106;10.996;2023-04-26T11:02:44;9.80;;;5.30;;
77379;SDS011;66439;50.106;10.996;2023-04-26T11:04:51;9.40;;;5.90;;
77379;SDS011;66439;50.106;10.996;2023-04-26T11:06:55;9.50;;;5.10;;
77379;SDS011;66439;50.106;10.996;2023-04-26T11:09:02;8.50;;;5.30;;
77379;SDS011;66439;50.106;10.996;2023-04-26T11:11:09;14.10;;;6.40;;
77379;SDS011;66439;50.106;10.996;2023-04-26T11:13:15;6.90;;;5.80;;
77379;SDS011;66439;50.106;10.996;2023-04-26T11:15:20;9.40;;;5.00;;
77379;SDS011;66439;50.106;10.996;2023-04-26T11:17:24;10.30;;;6.00;;
77379;SDS011;66439;50.106;10.996;2023-04-26T11:19:27;10.30;;;6.90;;
77379;SDS011;66439;50.106;10.996;2023-04-26T11:21:30;9.70;;;5.60;;
77379;SDS011;66439;50.106;10.996;2023-04-26T11:23:34;7.40;;;6.40;;
77379;SDS011;66439;50.106;10.996;2023-04-26T11:25:38;13.40;;;5.70;;
77379;SDS011;66439;50.106;10.996;2023-04-26T11:27:42;12.80;;;6.00;;
77379;SDS011;66439;50.106;10.996;2023-04-26T11:29:45;8.40;;;4.80;;
77379;SDS011;66439;50.106;10.996;2023-04-26T11:31:54;9.80;;;4.70;;
77379;SDS011;66439;50.106;10.996;2023-04-26T11:34:05;6.40;;;4.20;;
77379;SDS011;66439;50.106;10.996;2023-04-26T11:38:12;11.70;;;4.60;;
77379;SDS011;66439;50.106;10.996;2023-04-26T11:40:16;11.20;;;5.70;;
77379;SDS011;66439;50.106;10.996;2023-04-26T11:42:23;22.10;;;8.60;;
77379;SDS011;66439;50.106;10.996;2023-04-26T11:44:28;7.10;;;5.60;;
77379;SDS011;66439;50.106;10.996;2023-04-26T11:46:32;7.90;;;5.20;;
77379;SDS011;66439;50.106;10.996;2023-04-26T11:48:37;15.60;;;6.50;;
77379;SDS011;66439;50.106;10.996;2023-04-26T11:50:43;9.40;;;4.80;;
77379;SDS011;66439;50.106;10.996;2023-04-26T11:52:47;8.70;;;5.20;;
77379;SDS011;66439;50.106;10.996;2023-04-26T11:54:55;12.80;;;6.60;;
77379;SDS011;66439;50.106;10.996;2023-04-26T11:57:12;7.70;;;5.00;;
77379;SDS011;66439;50.106;10.996;2023-04-26T11:59:28;9.10;;;5.50;;
77379;SDS011;66439;50.106;10.996;2023-04-26T12:01:34;9.50;;;7.30;;
77379;SDS011;66439;50.106;10.996;2023-04-26T12:03:37;10.20;;;6.80;;
77379;SDS011;66439;50.106;10.996;2023-04-26T12:05:41;9.70;;;6.20;;
77379;SDS011;66439;50.106;10.996;2023-04-26T12:07:44;9.30;;;5.30;;
77379;SDS011;66439;50.106;10.996;2023-04-26T12:09:52;10.00;;;4.60;;
77379;SDS011;66439;50.106;10.996;2023-04-26T12:12:00;10.90;;;5.20;;
77379;SDS011;66439;50.106;10.996;2023-04-26T12:14:08;11.80;;;5.00;;
77379;SDS011;66439;50.106;10.996;2023-04-26T12:16:13;9.40;;;4.80;;
77379;SDS011;66439;50.106;10.996;2023-04-26T12:18:31;10.50;;;5.70;;
77379;SDS011;66439;50.106;10.996;2023-04-26T12:20:36;9.20;;;6.10;;
77379;SDS011;66439;50.106;10.996;2023-04-26T12:22:40;12.60;;;6.00;;
77379;SDS011;66439;50.106;10.996;2023-04-26T12:24:43;7.60;;;4.10;;
77379;SDS011;66439;50.106;10.996;2023-04-26T12:26:47;20.30;;;5.10;;
77379;SDS011;66439;50.106;10.996;2023-04-26T12:28:53;9.00;;;4.30;;